sensor_id;sensor_type;location;lat;lon;timestamp;pressure;altitude;pressure_sealevel;temperature;humidity
75745;BME280;64359;51.366;-0.222;2023-05-10T00:01:00;100738.95;;;21.85;57.61
75745;BME280;64359;51.366;-0.222;2023-05-10T00:02:03;100738.90;;;21.84;57.59
75745;BME280;64359;51.366;-0.222;2023-05-10T00:03:05;100738.48;;;21.84;57.38
75745;BME280;64359;51.366;-0.222;2023-05-10T00:04:07;100739.27;;;21.84;57.42
75745;BME280;64359;51.366;-0.222;2023-05-10T00:05:10;100737.65;;;21.84;57.39
75745;BME280;64359;51.366;-0.222;2023-05-10T00:06:12;100739.81;;;21.84;57.41
75745;BME280;64359;51.366;-0.222;2023-05-10T00:07:14;100740.23;;;21.83;57.37
75745;BME280;64359;51.366;-0.222;2023-05-10T00:08:18;100741.70;;;21.83;57.60
75745;BME280;64359;51.366;-0.222;2023-05-10T00:09:21;100737.17;;;21.83;57.43
75745;BME280;64359;51.366;-0.222;2023-05-10T00:10:23;100741.48;;;21.82;57.60
75745;BME280;64359;51.366;-0.222;2023-05-10T00:11:25;100739.30;;;21.82;57.36
75745;BME280;64359;51.366;-0.222;2023-05-10T00:12:28;100739.01;;;21.82;57.46
75745;BME280;64359;51.366;-0.222;2023-05-10T00:13:32;100736.88;;;21.81;57.35
75745;BME280;64359;51.366;-0.222;2023-05-10T00:14:34;100738.50;;;21.81;57.62
75745;BME280;64359;51.366;-0.222;2023-05-10T00:15:36;100737.50;;;21.81;57.45
75745;BME280;64359;51.366;-0.222;2023-05-10T00:16:39;100735.04;;;21.80;57.35
75745;BME280;64359;51.366;-0.222;2023-05-10T00:17:41;100737.98;;;21.80;57.50
75745;BME280;64359;51.366;-0.222;2023-05-10T00:18:43;100740.36;;;21.79;57.54
75745;BME280;64359;51.366;-0.222;2023-05-10T00:19:45;100741.82;;;21.79;57.46
75745;BME280;64359;51.366;-0.222;2023-05-10T00:20:48;100744.41;;;21.79;57.58
75745;BME280;64359;51.366;-0.222;2023-05-10T00:21:50;100741.23;;;21.78;57.47
75745;BME280;64359;51.366;-0.222;2023-05-10T00:22:53;100741.03;;;21.79;57.72
75745;BME280;64359;51.366;-0.222;2023-05-10T00:23:55;100741.81;;;21.78;57.45
75745;BME280;64359;51.366;-0.222;2023-05-10T00:24:57;100744.98;;;21.77;57.66
75745;BME280;64359;51.366;-0.222;2023-05-10T00:26:00;100741.35;;;21.77;57.73
75745;BME280;64359;51.366;-0.222;2023-05-10T00:27:02;100741.79;;;21.76;57.67
75745;BME280;64359;51.366;-0.222;2023-05-10T00:28:05;100741.24;;;21.76;57.82
75745;BME280;64359;51.366;-0.222;2023-05-10T00:29:07;100738.48;;;21.75;57.76
75745;BME280;64359;51.366;-0.222;2023-05-10T00:30:10;100741.64;;;21.75;57.87
75745;BME280;64359;51.366;-0.222;2023-05-10T00:31:13;100739.47;;;21.75;57.85
75745;BME280;64359;51.366;-0.222;2023-05-10T00:32:16;100740.30;;;21.74;57.96
75745;BME280;64359;51.366;-0.222;2023-05-10T00:33:18;100742.13;;;21.74;58.00
75745;BME280;64359;51.366;-0.222;2023-05-10T00:34:20;100738.54;;;21.73;57.72
75745;BME280;64359;51.366;-0.222;2023-05-10T00:35:23;100738.54;;;21.74;57.91
75745;BME280;64359;51.366;-0.222;2023-05-10T00:36:25;100741.34;;;21.73;57.74
75745;BME280;64359;51.366;-0.222;2023-05-10T00:37:28;100737.73;;;21.73;57.78
75745;BME280;64359;51.366;-0.222;2023-05-10T00:38:30;100738.94;;;21.72;57.74
75745;BME280;64359;51.366;-0.222;2023-05-10T00:39:32;100739.52;;;21.72;57.75
75745;BME280;64359;51.366;-0.222;2023-05-10T00:40:36;100739.58;;;21.71;57.78
75745;BME280;64359;51.366;-0.222;2023-05-10T00:41:39;100736.30;;;21.71;57.70
75745;BME280;64359;51.366;-0.222;2023-05-10T00:42:41;100738.14;;;21.71;57.79
75745;BME280;64359;51.366;-0.222;2023-05-10T00:43:43;100735.30;;;21.71;57.74
75745;BME280;64359;51.366;-0.222;2023-05-10T00:44:45;100738.93;;;21.70;57.45
75745;BME280;64359;51.366;-0.222;2023-05-10T00:45:48;100736.80;;;21.70;57.65
75745;BME280;64359;51.366;-0.222;2023-05-10T00:46:51;100739.14;;;21.70;57.65
75745;BME280;64359;51.366;-0.222;2023-05-10T00:47:54;100741.48;;;21.70;57.52
75745;BME280;64359;51.366;-0.222;2023-05-10T00:48:57;100742.09;;;21.70;57.60
75745;BME280;64359;51.366;-0.222;2023-05-10T00:50:00;100738.52;;;21.70;57.76
75745;BME280;64359;51.366;-0.222;2023-05-10T00:51:03;100744.67;;;21.70;57.66
75745;BME280;64359;51.366;-0.222;2023-05-10T00:52:05;100742.17;;;21.69;57.65
75745;BME280;64359;51.366;-0.222;2023-05-10T00:53:08;100743.59;;;21.69;57.67
75745;BME280;64359;51.366;-0.222;2023-05-10T00:54:11;100745.80;;;21.69;57.48
75745;BME280;64359;51.366;-0.222;2023-05-10T00:55:16;100745.91;;;21.68;57.50
75745;BME280;64359;51.366;-0.222;2023-05-10T00:56:18;100744.30;;;21.68;57.42
75745;BME280;64359;51.366;-0.222;2023-05-10T00:57:22;100745.21;;;21.68;57.65
75745;BME280;64359;51.366;-0.222;2023-05-10T00:58:24;100746.51;;;21.68;57.57
75745;BME280;64359;51.366;-0.222;2023-05-10T00:59:29;100749.09;;;21.67;57.53
75745;BME280;64359;51.366;-0.222;2023-05-10T01:00:33;100750.52;;;21.68;57.61
75745;BME280;64359;51.366;-0.222;2023-05-10T01:01:35;100750.20;;;21.67;57.60
75745;BME280;64359;51.366;-0.222;2023-05-10T01:02:38;100752.20;;;21.67;57.67
75745;BME280;64359;51.366;-0.222;2023-05-10T01:03:40;100752.08;;;21.67;57.49
75745;BME280;64359;51.366;-0.222;2023-05-10T01:04:43;100752.45;;;21.66;57.47
75745;BME280;64359;51.366;-0.222;2023-05-10T01:05:45;100753.04;;;21.66;57.51
75745;BME280;64359;51.366;-0.222;2023-05-10T01:06:48;100754.83;;;21.66;57.48
75745;BME280;64359;51.366;-0.222;2023-05-10T01:07:50;100755.96;;;21.66;57.49
75745;BME280;64359;51.366;-0.222;2023-05-10T01:08:52;100756.16;;;21.66;57.63
75745;BME280;64359;51.366;-0.222;2023-05-10T01:09:55;100757.08;;;21.66;57.51
75745;BME280;64359;51.366;-0.222;2023-05-10T01:10:58;100759.45;;;21.66;57.59
75745;BME280;64359;51.366;-0.222;2023-05-10T01:12:01;100760.41;;;21.65;57.53
75745;BME280;64359;51.366;-0.222;2023-05-10T01:13:04;100758.31;;;21.65;57.71
75745;BME280;64359;51.366;-0.222;2023-05-10T01:14:07;100761.95;;;21.64;57.57
75745;BME280;64359;51.366;-0.222;2023-05-10T01:15:11;100765.20;;;21.65;57.53
75745;BME280;64359;51.366;-0.222;2023-05-10T01:16:14;100763.66;;;21.64;57.42
75745;BME280;64359;51.366;-0.222;2023-05-10T01:17:16;100764.03;;;21.64;57.38
75745;BME280;64359;51.366;-0.222;2023-05-10T01:18:21;100766.16;;;21.64;57.78
75745;BME280;64359;51.366;-0.222;2023-05-10T01:19:25;100764.98;;;21.63;57.68
75745;BME280;64359;51.366;-0.222;2023-05-10T01:20:35;100763.61;;;21.63;57.68
75745;BME280;64359;51.366;-0.222;2023-05-10T01:21:45;100768.39;;;21.62;57.63
75745;BME280;64359;51.366;-0.222;2023-05-10T01:24:46;100763.20;;;21.59;57.73
75745;BME280;64359;51.366;-0.222;2023-05-10T01:26:36;100772.52;;;21.58;57.78
75745;BME280;64359;51.366;-0.222;2023-05-10T01:28:26;100769.55;;;21.56;57.78
75745;BME280;64359;51.366;-0.222;2023-05-10T01:30:05;100773.77;;;21.54;57.66
75745;BME280;64359;51.366;-0.222;2023-05-10T01:31:20;100776.00;;;21.52;58.02
75745;BME280;64359;51.366;-0.222;2023-05-10T01:32:29;100773.33;;;21.52;58.01
75745;BME280;64359;51.366;-0.222;2023-05-10T01:33:36;100772.80;;;21.50;57.84
75745;BME280;64359;51.366;-0.222;2023-05-10T01:34:44;100773.46;;;21.51;57.85
75745;BME280;64359;51.366;-0.222;2023-05-10T01:35:58;100774.45;;;21.50;57.88
75745;BME280;64359;51.366;-0.222;2023-05-10T01:37:07;100773.79;;;21.50;57.91
75745;BME280;64359;51.366;-0.222;2023-05-10T01:38:17;100776.08;;;21.50;57.88
75745;BME280;64359;51.366;-0.222;2023-05-10T01:39:25;100775.25;;;21.49;57.90
75745;BME280;64359;51.366;-0.222;2023-05-10T01:40:37;100778.17;;;21.49;58.03
75745;BME280;64359;51.366;-0.222;2023-05-10T01:41:48;100777.99;;;21.49;58.09
75745;BME280;64359;51.366;-0.222;2023-05-10T01:42:54;100779.88;;;21.49;58.16
75745;BME280;64359;51.366;-0.222;2023-05-10T01:44:03;100780.78;;;21.49;57.96
75745;BME280;64359;51.366;-0.222;2023-05-10T01:45:20;100781.33;;;21.49;57.86
75745;BME280;64359;51.366;-0.222;2023-05-10T01:46:28;100779.45;;;21.48;57.88
75745;BME280;64359;51.366;-0.222;2023-05-10T01:47:36;100778.94;;;21.47;57.86
75745;BME280;64359;51.366;-0.222;2023-05-10T01:48:41;100779.11;;;21.48;57.76
75745;BME280;64359;51.366;-0.222;2023-05-10T01:49:52;100779.65;;;21.48;58.10
75745;BME280;64359;51.366;-0.222;2023-05-10T01:50:56;100779.35;;;21.47;58.15
75745;BME280;64359;51.366;-0.222;2023-05-10T01:52:03;100776.89;;;21.46;57.87
75745;BME280;64359;51.366;-0.222;2023-05-10T01:53:09;100777.39;;;21.47;57.99
75745;BME280;64359;51.366;-0.222;2023-05-10T01:54:13;100779.10;;;21.46;57.98
75745;BME280;64359;51.366;-0.222;2023-05-10T01:55:19;100776.05;;;21.46;58.03
75745;BME280;64359;51.366;-0.222;2023-05-10T01:56:25;100780.05;;;21.45;58.21
75745;BME280;64359;51.366;-0.222;2023-05-10T01:57:33;100779.30;;;21.46;58.20
75745;BME280;64359;51.366;-0.222;2023-05-10T01:58:37;100783.67;;;21.45;58.07
75745;BME280;64359;51.366;-0.222;2023-05-10T01:59:43;100781.71;;;21.45;58.09
75745;BME280;64359;51.366;-0.222;2023-05-10T02:00:48;100784.27;;;21.45;58.20
75745;BME280;64359;51.366;-0.222;2023-05-10T02:01:52;100782.67;;;21.45;58.09
75745;BME280;64359;51.366;-0.222;2023-05-10T02:02:56;100783.92;;;21.45;57.98
75745;BME280;64359;51.366;-0.222;2023-05-10T02:03:59;100788.50;;;21.44;58.14
75745;BME280;64359;51.366;-0.222;2023-05-10T02:05:03;100785.42;;;21.44;58.10
75745;BME280;64359;51.366;-0.222;2023-05-10T02:06:07;100786.66;;;21.44;58.12
75745;BME280;64359;51.366;-0.222;2023-05-10T02:07:12;100788.88;;;21.44;58.16
75745;BME280;64359;51.366;-0.222;2023-05-10T02:08:17;100790.38;;;21.44;57.93
75745;BME280;64359;51.366;-0.222;2023-05-10T02:09:20;100790.38;;;21.44;57.91
75745;BME280;64359;51.366;-0.222;2023-05-10T02:10:23;100792.75;;;21.43;57.93
75745;BME280;64359;51.366;-0.222;2023-05-10T02:11:27;100792.20;;;21.43;58.12
75745;BME280;64359;51.366;-0.222;2023-05-10T02:12:30;100792.37;;;21.44;57.94
75745;BME280;64359;51.366;-0.222;2023-05-10T02:13:34;100793.09;;;21.44;57.85
75745;BME280;64359;51.366;-0.222;2023-05-10T02:14:39;100793.88;;;21.43;57.85
75745;BME280;64359;51.366;-0.222;2023-05-10T02:15:43;100793.33;;;21.43;57.88
75745;BME280;64359;51.366;-0.222;2023-05-10T02:16:51;100792.08;;;21.43;57.88
75745;BME280;64359;51.366;-0.222;2023-05-10T02:17:56;100791.58;;;21.43;57.80
75745;BME280;64359;51.366;-0.222;2023-05-10T02:19:00;100792.16;;;21.43;57.81
75745;BME280;64359;51.366;-0.222;2023-05-10T02:20:05;100798.63;;;21.43;57.88
75745;BME280;64359;51.366;-0.222;2023-05-10T02:21:10;100794.70;;;21.42;57.79
75745;BME280;64359;51.366;-0.222;2023-05-10T02:22:13;100797.45;;;21.42;57.81
75745;BME280;64359;51.366;-0.222;2023-05-10T02:23:18;100797.04;;;21.42;57.89
75745;BME280;64359;51.366;-0.222;2023-05-10T02:24:22;100799.52;;;21.41;57.81
75745;BME280;64359;51.366;-0.222;2023-05-10T02:25:26;100800.16;;;21.42;57.92
75745;BME280;64359;51.366;-0.222;2023-05-10T02:26:30;100803.25;;;21.42;57.98
75745;BME280;64359;51.366;-0.222;2023-05-10T02:27:34;100800.82;;;21.41;57.87
75745;BME280;64359;51.366;-0.222;2023-05-10T02:28:37;100803.86;;;21.41;57.71
75745;BME280;64359;51.366;-0.222;2023-05-10T02:29:41;100804.23;;;21.41;57.99
75745;BME280;64359;51.366;-0.222;2023-05-10T02:30:43;100804.44;;;21.41;57.96
75745;BME280;64359;51.366;-0.222;2023-05-10T02:31:46;100805.91;;;21.38;57.92
75745;BME280;64359;51.366;-0.222;2023-05-10T02:32:49;100806.08;;;21.38;57.94
75745;BME280;64359;51.366;-0.222;2023-05-10T02:33:53;100805.70;;;21.38;57.90
75745;BME280;64359;51.366;-0.222;2023-05-10T02:34:56;100806.24;;;21.38;57.74
75745;BME280;64359;51.366;-0.222;2023-05-10T02:35:59;100805.54;;;21.38;57.98
75745;BME280;64359;51.366;-0.222;2023-05-10T02:37:03;100808.66;;;21.38;58.01
75745;BME280;64359;51.366;-0.222;2023-05-10T02:38:07;100806.32;;;21.38;57.86
75745;BME280;64359;51.366;-0.222;2023-05-10T02:39:11;100808.20;;;21.37;57.80
75745;BME280;64359;51.366;-0.222;2023-05-10T02:40:16;100809.61;;;21.37;57.95
75745;BME280;64359;51.366;-0.222;2023-05-10T02:41:20;100811.61;;;21.37;57.90
75745;BME280;64359;51.366;-0.222;2023-05-10T02:42:26;100811.98;;;21.37;57.91
75745;BME280;64359;51.366;-0.222;2023-05-10T02:43:30;100812.50;;;21.37;57.88
75745;BME280;64359;51.366;-0.222;2023-05-10T02:44:34;100817.38;;;21.37;57.83
75745;BME280;64359;51.366;-0.222;2023-05-10T02:45:38;100813.86;;;21.37;57.77
75745;BME280;64359;51.366;-0.222;2023-05-10T02:46:42;100815.79;;;21.37;57.70
75745;BME280;64359;51.366;-0.222;2023-05-10T02:47:45;100815.45;;;21.37;57.74
75745;BME280;64359;51.366;-0.222;2023-05-10T02:48:47;100814.90;;;21.37;57.69
75745;BME280;64359;51.366;-0.222;2023-05-10T02:49:49;100818.56;;;21.37;57.68
75745;BME280;64359;51.366;-0.222;2023-05-10T02:50:52;100817.45;;;21.37;57.71
75745;BME280;64359;51.366;-0.222;2023-05-10T02:52:00;100821.07;;;21.37;57.67
75745;BME280;64359;51.366;-0.222;2023-05-10T02:53:06;100822.52;;;21.37;57.78
75745;BME280;64359;51.366;-0.222;2023-05-10T02:54:15;100823.19;;;21.36;57.86
75745;BME280;64359;51.366;-0.222;2023-05-10T02:55:22;100823.35;;;21.36;57.84
75745;BME280;64359;51.366;-0.222;2023-05-10T02:56:33;100825.77;;;21.35;57.88
75745;BME280;64359;51.366;-0.222;2023-05-10T02:57:40;100824.22;;;21.35;57.91
75745;BME280;64359;51.366;-0.222;2023-05-10T02:58:43;100825.71;;;21.34;57.96
75745;BME280;64359;51.366;-0.222;2023-05-10T02:59:46;100826.67;;;21.34;57.97
75745;BME280;64359;51.366;-0.222;2023-05-10T03:00:48;100827.77;;;21.34;58.02
75745;BME280;64359;51.366;-0.222;2023-05-10T03:01:50;100828.67;;;21.34;57.90
75745;BME280;64359;51.366;-0.222;2023-05-10T03:02:53;100825.33;;;21.33;57.94
75745;BME280;64359;51.366;-0.222;2023-05-10T03:03:55;100826.61;;;21.33;57.81
75745;BME280;64359;51.366;-0.222;2023-05-10T03:04:57;100828.08;;;21.33;57.84
75745;BME280;64359;51.366;-0.222;2023-05-10T03:06:00;100826.41;;;21.33;57.92
75745;BME280;64359;51.366;-0.222;2023-05-10T03:07:02;100828.38;;;21.33;58.01
75745;BME280;64359;51.366;-0.222;2023-05-10T03:08:05;100828.66;;;21.33;57.72
75745;BME280;64359;51.366;-0.222;2023-05-10T03:09:08;100829.57;;;21.33;57.76
75745;BME280;64359;51.366;-0.222;2023-05-10T03:10:12;100827.44;;;21.32;57.68
75745;BME280;64359;51.366;-0.222;2023-05-10T03:11:28;100827.68;;;21.32;57.67
75745;BME280;64359;51.366;-0.222;2023-05-10T03:12:44;100826.13;;;21.31;57.77
75745;BME280;64359;51.366;-0.222;2023-05-10T03:13:56;100830.42;;;21.30;57.77
75745;BME280;64359;51.366;-0.222;2023-05-10T03:15:11;100832.85;;;21.29;57.81
75745;BME280;64359;51.366;-0.222;2023-05-10T03:16:19;100830.08;;;21.28;57.63
75745;BME280;64359;51.366;-0.222;2023-05-10T03:17:30;100832.63;;;21.28;57.91
75745;BME280;64359;51.366;-0.222;2023-05-10T03:18:41;100831.20;;;21.28;57.89
75745;BME280;64359;51.366;-0.222;2023-05-10T03:19:50;100826.36;;;21.28;58.23
75745;BME280;64359;51.366;-0.222;2023-05-10T03:20:59;100827.48;;;21.27;58.23
75745;BME280;64359;51.366;-0.222;2023-05-10T03:22:07;100826.09;;;21.27;58.14
75745;BME280;64359;51.366;-0.222;2023-05-10T03:23:21;100830.19;;;21.27;58.18
75745;BME280;64359;51.366;-0.222;2023-05-10T03:24:27;100827.22;;;21.27;58.00
75745;BME280;64359;51.366;-0.222;2023-05-10T03:25:30;100828.94;;;21.27;58.30
75745;BME280;64359;51.366;-0.222;2023-05-10T03:26:33;100827.02;;;21.28;58.41
75745;BME280;64359;51.366;-0.222;2023-05-10T03:27:40;100827.27;;;21.29;58.40
75745;BME280;64359;51.366;-0.222;2023-05-10T03:28:44;100823.58;;;21.30;58.23
75745;BME280;64359;51.366;-0.222;2023-05-10T03:29:46;100828.77;;;21.30;58.34
75745;BME280;64359;51.366;-0.222;2023-05-10T03:30:50;100824.52;;;21.31;58.29
75745;BME280;64359;51.366;-0.222;2023-05-10T03:31:54;100824.56;;;21.32;58.10
75745;BME280;64359;51.366;-0.222;2023-05-10T03:32:56;100827.74;;;21.33;58.29
75745;BME280;64359;51.366;-0.222;2023-05-10T03:33:59;100825.67;;;21.35;58.48
75745;BME280;64359;51.366;-0.222;2023-05-10T03:35:01;100828.91;;;21.36;57.99
75745;BME280;64359;51.366;-0.222;2023-05-10T03:36:08;100828.39;;;21.39;57.94
75745;BME280;64359;51.366;-0.222;2023-05-10T03:37:10;100827.45;;;21.41;58.01
75745;BME280;64359;51.366;-0.222;2023-05-10T03:38:12;100829.63;;;21.41;58.22
75745;BME280;64359;51.366;-0.222;2023-05-10T03:39:14;100834.88;;;21.42;58.57
75745;BME280;64359;51.366;-0.222;2023-05-10T03:40:17;100832.15;;;21.44;58.36
75745;BME280;64359;51.366;-0.222;2023-05-10T03:41:19;100835.63;;;21.44;58.58
75745;BME280;64359;51.366;-0.222;2023-05-10T03:42:22;100837.27;;;21.46;58.25
75745;BME280;64359;51.366;-0.222;2023-05-10T03:43:24;100840.87;;;21.48;57.97
75745;BME280;64359;51.366;-0.222;2023-05-10T03:44:26;100839.70;;;21.49;58.23
75745;BME280;64359;51.366;-0.222;2023-05-10T03:45:29;100840.23;;;21.50;57.49
75745;BME280;64359;51.366;-0.222;2023-05-10T03:46:31;100837.40;;;21.51;57.56
75745;BME280;64359;51.366;-0.222;2023-05-10T03:47:33;100842.13;;;21.49;57.82
75745;BME280;64359;51.366;-0.222;2023-05-10T03:48:36;100843.02;;;21.51;57.72
75745;BME280;64359;51.366;-0.222;2023-05-10T03:49:38;100846.33;;;21.52;58.14
75745;BME280;64359;51.366;-0.222;2023-05-10T03:50:40;100844.09;;;21.52;58.36
75745;BME280;64359;51.366;-0.222;2023-05-10T03:51:42;100847.10;;;21.53;57.81
75745;BME280;64359;51.366;-0.222;2023-05-10T03:52:45;100851.47;;;21.54;58.02
75745;BME280;64359;51.366;-0.222;2023-05-10T03:53:47;100852.15;;;21.55;57.79
75745;BME280;64359;51.366;-0.222;2023-05-10T03:54:49;100850.26;;;21.52;57.51
75745;BME280;64359;51.366;-0.222;2023-05-10T03:55:51;100850.84;;;21.54;57.40
75745;BME280;64359;51.366;-0.222;2023-05-10T03:56:54;100854.77;;;21.54;57.55
75745;BME280;64359;51.366;-0.222;2023-05-10T03:57:56;100854.48;;;21.55;57.29
75745;BME280;64359;51.366;-0.222;2023-05-10T03:58:58;100854.58;;;21.56;57.32
75745;BME280;64359;51.366;-0.222;2023-05-10T04:00:01;100852.16;;;21.56;57.87
75745;BME280;64359;51.366;-0.222;2023-05-10T04:01:04;100850.11;;;21.56;58.44
75745;BME280;64359;51.366;-0.222;2023-05-10T04:02:06;100851.33;;;21.57;57.63
75745;BME280;64359;51.366;-0.222;2023-05-10T04:03:09;100846.63;;;21.57;57.72
75745;BME280;64359;51.366;-0.222;2023-05-10T04:04:11;100846.41;;;21.57;57.98
75745;BME280;64359;51.366;-0.222;2023-05-10T04:05:13;100849.77;;;21.58;57.33
75745;BME280;64359;51.366;-0.222;2023-05-10T04:06:15;100846.72;;;21.57;57.31
75745;BME280;64359;51.366;-0.222;2023-05-10T04:07:18;100847.21;;;21.58;57.91
75745;BME280;64359;51.366;-0.222;2023-05-10T04:08:20;100847.35;;;21.58;57.69
75745;BME280;64359;51.366;-0.222;2023-05-10T04:09:22;100849.30;;;21.58;57.64
75745;BME280;64359;51.366;-0.222;2023-05-10T04:10:25;100847.11;;;21.59;57.74
75745;BME280;64359;51.366;-0.222;2023-05-10T04:11:27;100847.65;;;21.59;57.37
75745;BME280;64359;51.366;-0.222;2023-05-10T04:12:29;100848.83;;;21.59;57.50
75745;BME280;64359;51.366;-0.222;2023-05-10T04:13:32;100852.83;;;21.59;57.52
75745;BME280;64359;51.366;-0.222;2023-05-10T04:14:34;100847.52;;;21.60;57.90
75745;BME280;64359;51.366;-0.222;2023-05-10T04:15:36;100855.80;;;21.60;57.63
75745;BME280;64359;51.366;-0.222;2023-05-10T04:16:38;100853.25;;;21.60;57.25
75745;BME280;64359;51.366;-0.222;2023-05-10T04:17:41;100860.63;;;21.60;57.50
75745;BME280;64359;51.366;-0.222;2023-05-10T04:18:43;100859.95;;;21.60;57.29
75745;BME280;64359;51.366;-0.222;2023-05-10T04:19:45;100861.13;;;21.61;57.24
75745;BME280;64359;51.366;-0.222;2023-05-10T04:20:47;100861.73;;;21.60;57.70
75745;BME280;64359;51.366;-0.222;2023-05-10T04:21:50;100862.77;;;21.61;57.85
75745;BME280;64359;51.366;-0.222;2023-05-10T04:22:52;100862.34;;;21.60;57.57
75745;BME280;64359;51.366;-0.222;2023-05-10T04:23:54;100862.13;;;21.60;57.81
75745;BME280;64359;51.366;-0.222;2023-05-10T04:24:56;100863.55;;;21.60;57.16
75745;BME280;64359;51.366;-0.222;2023-05-10T04:26:01;100863.59;;;21.60;57.27
75745;BME280;64359;51.366;-0.222;2023-05-10T04:27:04;100865.92;;;21.60;57.25
75745;BME280;64359;51.366;-0.222;2023-05-10T04:28:06;100866.84;;;21.60;57.79
75745;BME280;64359;51.366;-0.222;2023-05-10T04:29:08;100871.85;;;21.60;57.87
75745;BME280;64359;51.366;-0.222;2023-05-10T04:30:12;100868.64;;;21.60;58.03
75745;BME280;64359;51.366;-0.222;2023-05-10T04:31:14;100872.59;;;21.60;57.37
75745;BME280;64359;51.366;-0.222;2023-05-10T04:32:16;100867.92;;;21.60;57.16
75745;BME280;64359;51.366;-0.222;2023-05-10T04:33:18;100872.67;;;21.59;57.74
75745;BME280;64359;51.366;-0.222;2023-05-10T04:34:21;100872.27;;;21.60;57.76
75745;BME280;64359;51.366;-0.222;2023-05-10T04:35:24;100871.89;;;21.60;57.69
75745;BME280;64359;51.366;-0.222;2023-05-10T04:36:26;100873.21;;;21.60;57.56
75745;BME280;64359;51.366;-0.222;2023-05-10T04:37:29;100870.92;;;21.59;57.23
75745;BME280;64359;51.366;-0.222;2023-05-10T04:38:31;100872.16;;;21.59;56.99
75745;BME280;64359;51.366;-0.222;2023-05-10T04:39:33;100872.38;;;21.59;56.93
75745;BME280;64359;51.366;-0.222;2023-05-10T04:40:36;100871.83;;;21.59;57.53
75745;BME280;64359;51.366;-0.222;2023-05-10T04:41:39;100876.00;;;21.59;57.61
75745;BME280;64359;51.366;-0.222;2023-05-10T04:42:41;100873.29;;;21.59;57.35
75745;BME280;64359;51.366;-0.222;2023-05-10T04:43:43;100871.46;;;21.59;57.75
75745;BME280;64359;51.366;-0.222;2023-05-10T04:44:45;100876.38;;;21.59;57.49
75745;BME280;64359;51.366;-0.222;2023-05-10T04:45:48;100871.16;;;21.59;57.54
75745;BME280;64359;51.366;-0.222;2023-05-10T04:46:51;100873.58;;;21.58;57.78
75745;BME280;64359;51.366;-0.222;2023-05-10T04:47:54;100874.23;;;21.58;57.70
75745;BME280;64359;51.366;-0.222;2023-05-10T04:48:56;100877.13;;;21.59;58.19
75745;BME280;64359;51.366;-0.222;2023-05-10T04:49:58;100874.80;;;21.58;58.08
75745;BME280;64359;51.366;-0.222;2023-05-10T04:51:01;100875.16;;;21.58;57.75
75745;BME280;64359;51.366;-0.222;2023-05-10T04:52:05;100875.16;;;21.58;57.95
75745;BME280;64359;51.366;-0.222;2023-05-10T04:53:07;100881.05;;;21.59;58.12
75745;BME280;64359;51.366;-0.222;2023-05-10T04:54:10;100884.34;;;21.59;57.85
75745;BME280;64359;51.366;-0.222;2023-05-10T04:55:12;100884.71;;;21.58;57.42
75745;BME280;64359;51.366;-0.222;2023-05-10T04:56:15;100884.05;;;21.58;57.38
75745;BME280;64359;51.366;-0.222;2023-05-10T04:57:18;100888.68;;;21.59;57.59
75745;BME280;64359;51.366;-0.222;2023-05-10T04:58:20;100893.73;;;21.59;57.69
75745;BME280;64359;51.366;-0.222;2023-05-10T04:59:23;100894.27;;;21.59;57.64
75745;BME280;64359;51.366;-0.222;2023-05-10T05:00:25;100895.66;;;21.59;57.47
75745;BME280;64359;51.366;-0.222;2023-05-10T05:01:27;100892.11;;;21.59;58.19
75745;BME280;64359;51.366;-0.222;2023-05-10T05:02:29;100896.44;;;21.59;58.14
75745;BME280;64359;51.366;-0.222;2023-05-10T05:03:32;100898.44;;;21.59;57.99
75745;BME280;64359;51.366;-0.222;2023-05-10T05:04:35;100902.79;;;21.59;58.21
75745;BME280;64359;51.366;-0.222;2023-05-10T05:05:37;100903.99;;;21.59;57.72
75745;BME280;64359;51.366;-0.222;2023-05-10T05:06:39;100905.79;;;21.59;58.22
75745;BME280;64359;51.366;-0.222;2023-05-10T05:07:41;100906.38;;;21.59;57.94
75745;BME280;64359;51.366;-0.222;2023-05-10T05:08:44;100908.63;;;21.59;57.66
75745;BME280;64359;51.366;-0.222;2023-05-10T05:09:46;100909.89;;;21.60;57.47
75745;BME280;64359;51.366;-0.222;2023-05-10T05:10:49;100913.30;;;21.60;57.40
75745;BME280;64359;51.366;-0.222;2023-05-10T05:11:52;100916.30;;;21.60;57.33
75745;BME280;64359;51.366;-0.222;2023-05-10T05:12:54;100919.52;;;21.61;57.38
75745;BME280;64359;51.366;-0.222;2023-05-10T05:13:56;100918.87;;;21.61;57.35
75745;BME280;64359;51.366;-0.222;2023-05-10T05:15:00;100916.16;;;21.61;57.34
75745;BME280;64359;51.366;-0.222;2023-05-10T05:16:03;100919.09;;;21.63;57.30
75745;BME280;64359;51.366;-0.222;2023-05-10T05:17:06;100922.64;;;21.63;57.46
75745;BME280;64359;51.366;-0.222;2023-05-10T05:18:08;100920.23;;;21.63;57.35
75745;BME280;64359;51.366;-0.222;2023-05-10T05:19:10;100921.27;;;21.64;57.42
75745;BME280;64359;51.366;-0.222;2023-05-10T05:20:13;100922.27;;;21.64;57.42
75745;BME280;64359;51.366;-0.222;2023-05-10T05:21:16;100926.54;;;21.65;58.18
75745;BME280;64359;51.366;-0.222;2023-05-10T05:22:19;100923.76;;;21.66;58.29
75745;BME280;64359;51.366;-0.222;2023-05-10T05:23:28;100927.38;;;21.66;57.55
75745;BME280;64359;51.366;-0.222;2023-05-10T05:24:35;100928.97;;;21.66;57.68
75745;BME280;64359;51.366;-0.222;2023-05-10T05:25:39;100929.27;;;21.66;57.85
75745;BME280;64359;51.366;-0.222;2023-05-10T05:26:41;100928.31;;;21.67;58.34
75745;BME280;64359;51.366;-0.222;2023-05-10T05:27:43;100933.48;;;21.67;57.72
75745;BME280;64359;51.366;-0.222;2023-05-10T05:28:46;100928.37;;;21.68;58.21
75745;BME280;64359;51.366;-0.222;2023-05-10T05:29:50;100928.49;;;21.68;58.23
75745;BME280;64359;51.366;-0.222;2023-05-10T05:30:52;100928.46;;;21.69;58.13
75745;BME280;64359;51.366;-0.222;2023-05-10T05:31:55;100928.37;;;21.68;57.76
75745;BME280;64359;51.366;-0.222;2023-05-10T05:32:58;100927.91;;;21.68;58.35
75745;BME280;64359;51.366;-0.222;2023-05-10T05:34:00;100929.42;;;21.69;58.62